Neodesha, Kansas
Current Conditions -  °F | °C
As of 9:41 PM on Saturday 22 Nov 2014 (Local Time) from KPPF Reporting Station
Scattered Clouds Scattered Clouds  
Wind Chill: 12°   Ceiling: Unl
Heat Index: 12°   Visibility: 10mi
Dew Point: 11°   Wind: 6mph
Humidity: 93%   Direction: 150°SSE
Pressure: 29.74"   Gusts: NA
Location:  37.42°N, 95.68°W
Report Text: KPPF 230341Z AUTO 15005KT 10SM SCT015 12/11 A2974 RMK AO2 T01220111
Loading
Personal Weather Stations






























Interactive Weather Map New forecast layout! Learn more

10-Day Weather Forecast

Advertisements
Track Severe Weather on mobile